sensor_id;sensor_type;location;lat;lon;timestamp;P1;durP1;ratioP1;P2;durP2;ratioP2
59504;SDS011;45321;53.200;5.814;2023-03-23T00:00:06;14.63;;;10.63;;
59504;SDS011;45321;53.200;5.814;2023-03-23T00:02:33;14.52;;;10.15;;
59504;SDS011;45321;53.200;5.814;2023-03-23T00:05:04;16.55;;;11.43;;
59504;SDS011;45321;53.200;5.814;2023-03-23T00:07:32;17.17;;;11.30;;
59504;SDS011;45321;53.200;5.814;2023-03-23T00:09:58;16.52;;;11.65;;
59504;SDS011;45321;53.200;5.814;2023-03-23T00:12:28;15.68;;;12.02;;
59504;SDS011;45321;53.200;5.814;2023-03-23T00:15:05;16.60;;;13.57;;
59504;SDS011;45321;53.200;5.814;2023-03-23T00:17:33;17.63;;;14.23;;
59504;SDS011;45321;53.200;5.814;2023-03-23T00:19:59;19.08;;;15.88;;
59504;SDS011;45321;53.200;5.814;2023-03-23T00:22:27;20.95;;;17.15;;
59504;SDS011;45321;53.200;5.814;2023-03-23T00:24:53;20.85;;;17.60;;
59504;SDS011;45321;53.200;5.814;2023-03-23T00:27:19;22.75;;;18.92;;
59504;SDS011;45321;53.200;5.814;2023-03-23T00:29:47;22.80;;;18.17;;
59504;SDS011;45321;53.200;5.814;2023-03-23T00:32:20;25.50;;;19.70;;
59504;SDS011;45321;53.200;5.814;2023-03-23T00:34:54;27.40;;;22.63;;
59504;SDS011;45321;53.200;5.814;2023-03-23T00:37:20;30.45;;;24.67;;
59504;SDS011;45321;53.200;5.814;2023-03-23T00:39:46;32.50;;;27.02;;
59504;SDS011;45321;53.200;5.814;2023-03-23T00:42:15;37.97;;;27.98;;
59504;SDS011;45321;53.200;5.814;2023-03-23T00:44:41;35.60;;;28.42;;
59504;SDS011;45321;53.200;5.814;2023-03-23T00:47:08;32.60;;;26.85;;
59504;SDS011;45321;53.200;5.814;2023-03-23T00:49:35;27.33;;;22.75;;
59504;SDS011;45321;53.200;5.814;2023-03-23T00:52:02;29.20;;;21.52;;
59504;SDS011;45321;53.200;5.814;2023-03-23T00:54:30;21.40;;;18.98;;
59504;SDS011;45321;53.200;5.814;2023-03-23T00:56:56;18.10;;;16.17;;
59504;SDS011;45321;53.200;5.814;2023-03-23T00:59:22;15.60;;;13.98;;
59504;SDS011;45321;53.200;5.814;2023-03-23T01:01:48;14.70;;;13.30;;
59504;SDS011;45321;53.200;5.814;2023-03-23T01:04:14;16.05;;;12.57;;
59504;SDS011;45321;53.200;5.814;2023-03-23T01:06:41;12.63;;;11.05;;
59504;SDS011;45321;53.200;5.814;2023-03-23T01:09:12;16.23;;;11.50;;
59504;SDS011;45321;53.200;5.814;2023-03-23T01:11:43;13.40;;;12.00;;
59504;SDS011;45321;53.200;5.814;2023-03-23T01:14:10;16.42;;;13.15;;
59504;SDS011;45321;53.200;5.814;2023-03-23T01:16:37;15.52;;;13.25;;
59504;SDS011;45321;53.200;5.814;2023-03-23T01:19:03;14.25;;;12.75;;
59504;SDS011;45321;53.200;5.814;2023-03-23T01:21:29;16.70;;;13.73;;
59504;SDS011;45321;53.200;5.814;2023-03-23T01:23:55;16.58;;;14.93;;
59504;SDS011;45321;53.200;5.814;2023-03-23T01:26:22;19.70;;;14.85;;
59504;SDS011;45321;53.200;5.814;2023-03-23T01:28:50;25.23;;;15.23;;
59504;SDS011;45321;53.200;5.814;2023-03-23T01:31:17;19.52;;;14.70;;
59504;SDS011;45321;53.200;5.814;2023-03-23T01:33:44;17.73;;;13.18;;
59504;SDS011;45321;53.200;5.814;2023-03-23T01:36:12;10.60;;;9.15;;
59504;SDS011;45321;53.200;5.814;2023-03-23T01:38:40;10.70;;;8.55;;
59504;SDS011;45321;53.200;5.814;2023-03-23T01:41:07;12.18;;;9.45;;
59504;SDS011;45321;53.200;5.814;2023-03-23T01:43:33;19.27;;;11.23;;
59504;SDS011;45321;53.200;5.814;2023-03-23T01:45:59;14.55;;;10.75;;
59504;SDS011;45321;53.200;5.814;2023-03-23T01:48:29;19.55;;;10.82;;
59504;SDS011;45321;53.200;5.814;2023-03-23T01:51:09;16.73;;;10.40;;
59504;SDS011;45321;53.200;5.814;2023-03-23T01:53:40;13.52;;;10.23;;
59504;SDS011;45321;53.200;5.814;2023-03-23T01:56:11;12.23;;;9.13;;
59504;SDS011;45321;53.200;5.814;2023-03-23T01:58:39;14.02;;;9.65;;
59504;SDS011;45321;53.200;5.814;2023-03-23T02:01:07;13.85;;;8.35;;
59504;SDS011;45321;53.200;5.814;2023-03-23T02:03:37;12.13;;;8.13;;
59504;SDS011;45321;53.200;5.814;2023-03-23T02:06:06;12.50;;;7.78;;
59504;SDS011;45321;53.200;5.814;2023-03-23T02:08:32;12.45;;;7.13;;
59504;SDS011;45321;53.200;5.814;2023-03-23T02:10:59;12.43;;;7.85;;
59504;SDS011;45321;53.200;5.814;2023-03-23T02:13:25;10.70;;;6.72;;
59504;SDS011;45321;53.200;5.814;2023-03-23T02:18:43;12.98;;;6.93;;
59504;SDS011;45321;53.200;5.814;2023-03-23T02:24:40;11.80;;;5.53;;
59504;SDS011;45321;53.200;5.814;2023-03-23T02:35:45;10.80;;;4.82;;
59504;SDS011;45321;53.200;5.814;2023-03-23T02:38:19;10.05;;;5.00;;
59504;SDS011;45321;53.200;5.814;2023-03-23T02:40:53;7.22;;;4.72;;
59504;SDS011;45321;53.200;5.814;2023-03-23T02:43:22;16.70;;;5.50;;
59504;SDS011;45321;53.200;5.814;2023-03-23T02:45:49;10.02;;;5.13;;
59504;SDS011;45321;53.200;5.814;2023-03-23T02:48:17;8.07;;;4.40;;
59504;SDS011;45321;53.200;5.814;2023-03-23T02:50:47;11.50;;;4.68;;
59504;SDS011;45321;53.200;5.814;2023-03-23T02:53:16;9.45;;;4.97;;
59504;SDS011;45321;53.200;5.814;2023-03-23T02:55:46;9.63;;;4.57;;
59504;SDS011;45321;53.200;5.814;2023-03-23T02:58:13;9.88;;;5.13;;
59504;SDS011;45321;53.200;5.814;2023-03-23T03:00:39;11.43;;;4.88;;
59504;SDS011;45321;53.200;5.814;2023-03-23T03:03:08;8.88;;;4.63;;
59504;SDS011;45321;53.200;5.814;2023-03-23T03:08:37;6.93;;;4.07;;
59504;SDS011;45321;53.200;5.814;2023-03-23T03:11:15;9.93;;;5.43;;
59504;SDS011;45321;53.200;5.814;2023-03-23T03:16:33;11.05;;;4.55;;
59504;SDS011;45321;53.200;5.814;2023-03-23T03:19:17;8.68;;;5.00;;
59504;SDS011;45321;53.200;5.814;2023-03-23T03:21:44;12.23;;;5.70;;
59504;SDS011;45321;53.200;5.814;2023-03-23T03:24:14;11.77;;;5.35;;
59504;SDS011;45321;53.200;5.814;2023-03-23T03:26:44;12.23;;;6.38;;
59504;SDS011;45321;53.200;5.814;2023-03-23T03:29:16;13.60;;;4.93;;
59504;SDS011;45321;53.200;5.814;2023-03-23T03:31:46;12.27;;;5.13;;
59504;SDS011;45321;53.200;5.814;2023-03-23T03:34:14;10.60;;;4.30;;
59504;SDS011;45321;53.200;5.814;2023-03-23T03:36:45;11.13;;;4.80;;
59504;SDS011;45321;53.200;5.814;2023-03-23T03:39:13;12.10;;;5.00;;
59504;SDS011;45321;53.200;5.814;2023-03-23T03:41:42;10.90;;;4.70;;
59504;SDS011;45321;53.200;5.814;2023-03-23T03:44:09;12.45;;;5.45;;
59504;SDS011;45321;53.200;5.814;2023-03-23T03:46:35;17.33;;;6.30;;
59504;SDS011;45321;53.200;5.814;2023-03-23T03:49:03;11.73;;;5.80;;
59504;SDS011;45321;53.200;5.814;2023-03-23T03:51:31;15.18;;;6.10;;
59504;SDS011;45321;53.200;5.814;2023-03-23T03:53:57;11.48;;;5.35;;
59504;SDS011;45321;53.200;5.814;2023-03-23T03:56:23;11.73;;;5.53;;
59504;SDS011;45321;53.200;5.814;2023-03-23T03:58:50;9.52;;;5.20;;
59504;SDS011;45321;53.200;5.814;2023-03-23T04:01:16;8.07;;;4.13;;
59504;SDS011;45321;53.200;5.814;2023-03-23T04:03:43;7.75;;;3.53;;
59504;SDS011;45321;53.200;5.814;2023-03-23T04:06:09;10.02;;;3.33;;
59504;SDS011;45321;53.200;5.814;2023-03-23T04:08:38;8.77;;;3.22;;
59504;SDS011;45321;53.200;5.814;2023-03-23T04:11:06;12.23;;;2.85;;
59504;SDS011;45321;53.200;5.814;2023-03-23T04:13:32;12.23;;;3.58;;
59504;SDS011;45321;53.200;5.814;2023-03-23T04:15:58;12.27;;;3.13;;
59504;SDS011;45321;53.200;5.814;2023-03-23T04:18:25;14.45;;;3.30;;
59504;SDS011;45321;53.200;5.814;2023-03-23T04:20:51;13.18;;;3.33;;
59504;SDS011;45321;53.200;5.814;2023-03-23T04:23:18;12.07;;;2.80;;
59504;SDS011;45321;53.200;5.814;2023-03-23T04:25:46;8.82;;;2.40;;
59504;SDS011;45321;53.200;5.814;2023-03-23T04:28:14;10.77;;;2.55;;
59504;SDS011;45321;53.200;5.814;2023-03-23T04:30:42;9.07;;;2.40;;
59504;SDS011;45321;53.200;5.814;2023-03-23T04:33:08;14.90;;;2.55;;
59504;SDS011;45321;53.200;5.814;2023-03-23T04:35:39;13.27;;;2.80;;
59504;SDS011;45321;53.200;5.814;2023-03-23T04:38:07;12.25;;;2.88;;
59504;SDS011;45321;53.200;5.814;2023-03-23T04:40:37;14.13;;;3.17;;
59504;SDS011;45321;53.200;5.814;2023-03-23T04:43:04;21.55;;;3.53;;
59504;SDS011;45321;53.200;5.814;2023-03-23T04:45:31;17.48;;;3.47;;
59504;SDS011;45321;53.200;5.814;2023-03-23T04:47:58;19.63;;;3.33;;
59504;SDS011;45321;53.200;5.814;2023-03-23T04:50:27;19.02;;;3.50;;
59504;SDS011;45321;53.200;5.814;2023-03-23T04:52:56;18.15;;;3.20;;
59504;SDS011;45321;53.200;5.814;2023-03-23T04:55:23;18.95;;;3.50;;
59504;SDS011;45321;53.200;5.814;2023-03-23T04:57:50;18.17;;;3.22;;
59504;SDS011;45321;53.200;5.814;2023-03-23T05:00:17;18.17;;;3.08;;
59504;SDS011;45321;53.200;5.814;2023-03-23T05:02:44;16.60;;;3.38;;
59504;SDS011;45321;53.200;5.814;2023-03-23T05:05:12;20.25;;;3.55;;
59504;SDS011;45321;53.200;5.814;2023-03-23T05:07:39;17.60;;;3.22;;
59504;SDS011;45321;53.200;5.814;2023-03-23T05:10:07;19.83;;;3.28;;
59504;SDS011;45321;53.200;5.814;2023-03-23T05:12:34;18.05;;;2.92;;
59504;SDS011;45321;53.200;5.814;2023-03-23T05:15:00;20.63;;;3.88;;
59504;SDS011;45321;53.200;5.814;2023-03-23T05:17:26;20.55;;;3.33;;
59504;SDS011;45321;53.200;5.814;2023-03-23T05:19:52;15.68;;;3.45;;
59504;SDS011;45321;53.200;5.814;2023-03-23T05:22:18;20.90;;;3.92;;
59504;SDS011;45321;53.200;5.814;2023-03-23T05:24:46;21.42;;;3.35;;
59504;SDS011;45321;53.200;5.814;2023-03-23T05:27:12;21.65;;;4.18;;
59504;SDS011;45321;53.200;5.814;2023-03-23T05:29:40;21.05;;;3.80;;
59504;SDS011;45321;53.200;5.814;2023-03-23T05:32:08;25.95;;;4.40;;
59504;SDS011;45321;53.200;5.814;2023-03-23T05:34:35;28.88;;;5.80;;
59504;SDS011;45321;53.200;5.814;2023-03-23T05:37:01;25.77;;;5.00;;
59504;SDS011;45321;53.200;5.814;2023-03-23T05:39:28;26.67;;;4.50;;
59504;SDS011;45321;53.200;5.814;2023-03-23T05:41:54;29.27;;;4.45;;
59504;SDS011;45321;53.200;5.814;2023-03-23T05:44:20;18.23;;;3.63;;
59504;SDS011;45321;53.200;5.814;2023-03-23T05:46:46;30.73;;;5.05;;
59504;SDS011;45321;53.200;5.814;2023-03-23T05:49:13;24.98;;;4.85;;
59504;SDS011;45321;53.200;5.814;2023-03-23T05:51:43;21.20;;;4.18;;
59504;SDS011;45321;53.200;5.814;2023-03-23T05:54:12;17.48;;;3.30;;
59504;SDS011;45321;53.200;5.814;2023-03-23T05:56:39;17.80;;;3.65;;
59504;SDS011;45321;53.200;5.814;2023-03-23T05:59:06;14.55;;;2.70;;
59504;SDS011;45321;53.200;5.814;2023-03-23T06:01:32;18.33;;;2.83;;
59504;SDS011;45321;53.200;5.814;2023-03-23T06:03:58;9.10;;;1.42;;
59504;SDS011;45321;53.200;5.814;2023-03-23T06:06:28;11.95;;;2.00;;
59504;SDS011;45321;53.200;5.814;2023-03-23T06:08:56;8.43;;;1.83;;
59504;SDS011;45321;53.200;5.814;2023-03-23T06:11:23;13.20;;;2.50;;
59504;SDS011;45321;53.200;5.814;2023-03-23T06:13:50;7.80;;;1.88;;
59504;SDS011;45321;53.200;5.814;2023-03-23T06:16:16;11.70;;;2.13;;
59504;SDS011;45321;53.200;5.814;2023-03-23T06:18:42;11.35;;;2.42;;
59504;SDS011;45321;53.200;5.814;2023-03-23T06:21:09;13.50;;;2.20;;
59504;SDS011;45321;53.200;5.814;2023-03-23T06:23:36;10.30;;;2.03;;
59504;SDS011;45321;53.200;5.814;2023-03-23T06:26:03;10.68;;;2.65;;
59504;SDS011;45321;53.200;5.814;2023-03-23T06:28:31;14.23;;;2.53;;
59504;SDS011;45321;53.200;5.814;2023-03-23T06:31:04;12.45;;;3.15;;
59504;SDS011;45321;53.200;5.814;2023-03-23T06:33:35;12.80;;;2.53;;
59504;SDS011;45321;53.200;5.814;2023-03-23T06:36:02;13.88;;;2.47;;
59504;SDS011;45321;53.200;5.814;2023-03-23T06:38:28;18.42;;;2.88;;
59504;SDS011;45321;53.200;5.814;2023-03-23T06:40:54;12.77;;;2.90;;
59504;SDS011;45321;53.200;5.814;2023-03-23T06:43:21;15.52;;;2.53;;
59504;SDS011;45321;53.200;5.814;2023-03-23T06:45:48;17.48;;;2.63;;
59504;SDS011;45321;53.200;5.814;2023-03-23T06:48:14;17.98;;;3.42;;
59504;SDS011;45321;53.200;5.814;2023-03-23T06:50:42;20.30;;;4.65;;
59504;SDS011;45321;53.200;5.814;2023-03-23T06:53:12;23.92;;;4.72;;
59504;SDS011;45321;53.200;5.814;2023-03-23T06:55:38;25.73;;;4.43;;
59504;SDS011;45321;53.200;5.814;2023-03-23T06:58:04;24.08;;;3.97;;
59504;SDS011;45321;53.200;5.814;2023-03-23T07:00:31;23.92;;;4.47;;
59504;SDS011;45321;53.200;5.814;2023-03-23T07:02:57;29.60;;;5.38;;
59504;SDS011;45321;53.200;5.814;2023-03-23T07:05:23;27.98;;;4.75;;
59504;SDS011;45321;53.200;5.814;2023-03-23T07:07:50;39.25;;;6.25;;
59504;SDS011;45321;53.200;5.814;2023-03-23T07:10:16;30.63;;;6.40;;
59504;SDS011;45321;53.200;5.814;2023-03-23T07:12:42;35.72;;;5.68;;
59504;SDS011;45321;53.200;5.814;2023-03-23T07:15:08;33.30;;;5.80;;
59504;SDS011;45321;53.200;5.814;2023-03-23T07:17:36;29.30;;;5.80;;
59504;SDS011;45321;53.200;5.814;2023-03-23T07:20:03;30.02;;;5.60;;
59504;SDS011;45321;53.200;5.814;2023-03-23T07:22:29;35.00;;;5.88;;
59504;SDS011;45321;53.200;5.814;2023-03-23T07:24:55;32.65;;;5.63;;
59504;SDS011;45321;53.200;5.814;2023-03-23T07:27:21;30.15;;;5.10;;
59504;SDS011;45321;53.200;5.814;2023-03-23T07:29:47;39.28;;;6.75;;
59504;SDS011;45321;53.200;5.814;2023-03-23T07:32:13;36.47;;;6.65;;
59504;SDS011;45321;53.200;5.814;2023-03-23T07:34:39;36.88;;;6.32;;
59504;SDS011;45321;53.200;5.814;2023-03-23T07:37:06;42.83;;;6.28;;
59504;SDS011;45321;53.200;5.814;2023-03-23T07:39:32;33.13;;;5.57;;
59504;SDS011;45321;53.200;5.814;2023-03-23T07:41:59;30.00;;;6.03;;
59504;SDS011;45321;53.200;5.814;2023-03-23T07:44:25;30.23;;;5.32;;
59504;SDS011;45321;53.200;5.814;2023-03-23T07:46:51;30.95;;;6.28;;
59504;SDS011;45321;53.200;5.814;2023-03-23T07:49:17;31.00;;;6.00;;
59504;SDS011;45321;53.200;5.814;2023-03-23T07:51:43;34.08;;;5.95;;
59504;SDS011;45321;53.200;5.814;2023-03-23T07:54:10;38.00;;;5.90;;
59504;SDS011;45321;53.200;5.814;2023-03-23T07:56:36;31.60;;;5.70;;
59504;SDS011;45321;53.200;5.814;2023-03-23T07:59:04;35.20;;;5.97;;
59504;SDS011;45321;53.200;5.814;2023-03-23T08:01:31;33.15;;;6.03;;
59504;SDS011;45321;53.200;5.814;2023-03-23T08:03:57;30.67;;;5.82;;
59504;SDS011;45321;53.200;5.814;2023-03-23T08:06:24;36.47;;;6.65;;
59504;SDS011;45321;53.200;5.814;2023-03-23T08:08:51;35.70;;;6.32;;
59504;SDS011;45321;53.200;5.814;2023-03-23T08:11:18;32.05;;;5.38;;
59504;SDS011;45321;53.200;5.814;2023-03-23T08:13:44;25.70;;;5.28;;
59504;SDS011;45321;53.200;5.814;2023-03-23T08:16:10;37.60;;;7.15;;
59504;SDS011;45321;53.200;5.814;2023-03-23T08:18:36;30.40;;;5.20;;
59504;SDS011;45321;53.200;5.814;2023-03-23T08:21:04;36.30;;;5.82;;
59504;SDS011;45321;53.200;5.814;2023-03-23T08:23:32;25.42;;;5.57;;
59504;SDS011;45321;53.200;5.814;2023-03-23T08:25:58;27.60;;;6.32;;
59504;SDS011;45321;53.200;5.814;2023-03-23T08:28:25;35.72;;;6.28;;
59504;SDS011;45321;53.200;5.814;2023-03-23T08:30:51;22.23;;;5.57;;
59504;SDS011;45321;53.200;5.814;2023-03-23T08:33:17;33.13;;;5.90;;
59504;SDS011;45321;53.200;5.814;2023-03-23T08:35:43;27.10;;;6.18;;
59504;SDS011;45321;53.200;5.814;2023-03-23T08:38:10;29.42;;;5.18;;
59504;SDS011;45321;53.200;5.814;2023-03-23T08:40:37;29.70;;;5.13;;
59504;SDS011;45321;53.200;5.814;2023-03-23T08:43:03;34.38;;;6.28;;
59504;SDS011;45321;53.200;5.814;2023-03-23T08:45:29;27.63;;;5.40;;
59504;SDS011;45321;53.200;5.814;2023-03-23T08:47:55;28.45;;;5.78;;
59504;SDS011;45321;53.200;5.814;2023-03-23T08:50:25;31.52;;;6.65;;
59504;SDS011;45321;53.200;5.814;2023-03-23T08:52:53;29.98;;;6.22;;
59504;SDS011;45321;53.200;5.814;2023-03-23T08:55:20;29.50;;;5.10;;
59504;SDS011;45321;53.200;5.814;2023-03-23T08:57:46;25.00;;;5.95;;
59504;SDS011;45321;53.200;5.814;2023-03-23T09:00:17;34.47;;;6.65;;
59504;SDS011;45321;53.200;5.814;2023-03-23T09:02:48;27.58;;;5.47;;
59504;SDS011;45321;53.200;5.814;2023-03-23T09:05:16;31.33;;;6.57;;
59504;SDS011;45321;53.200;5.814;2023-03-23T09:07:44;27.27;;;5.10;;
59504;SDS011;45321;53.200;5.814;2023-03-23T09:10:12;31.50;;;6.20;;
59504;SDS011;45321;53.200;5.814;2023-03-23T09:12:39;27.83;;;5.97;;
59504;SDS011;45321;53.200;5.814;2023-03-23T09:15:06;35.20;;;6.32;;
59504;SDS011;45321;53.200;5.814;2023-03-23T09:17:38;33.15;;;6.93;;
59504;SDS011;45321;53.200;5.814;2023-03-23T09:20:06;26.02;;;5.80;;
59504;SDS011;45321;53.200;5.814;2023-03-23T09:22:40;27.70;;;5.43;;
59504;SDS011;45321;53.200;5.814;2023-03-23T09:25:08;27.65;;;5.43;;
59504;SDS011;45321;53.200;5.814;2023-03-23T09:27:36;28.33;;;6.47;;
59504;SDS011;45321;53.200;5.814;2023-03-23T09:30:08;30.05;;;6.20;;
59504;SDS011;45321;53.200;5.814;2023-03-23T09:32:37;33.40;;;5.28;;
59504;SDS011;45321;53.200;5.814;2023-03-23T09:35:04;23.52;;;4.25;;
59504;SDS011;45321;53.200;5.814;2023-03-23T09:37:36;38.88;;;6.20;;
59504;SDS011;45321;53.200;5.814;2023-03-23T09:40:04;36.75;;;7.20;;
59504;SDS011;45321;53.200;5.814;2023-03-23T09:45:39;31.27;;;5.72;;
59504;SDS011;45321;53.200;5.814;2023-03-23T09:51:15;26.88;;;5.53;;
59504;SDS011;45321;53.200;5.814;2023-03-23T09:53:45;28.35;;;5.30;;
59504;SDS011;45321;53.200;5.814;2023-03-23T09:56:16;29.23;;;5.82;;
59504;SDS011;45321;53.200;5.814;2023-03-23T10:01:25;32.73;;;5.10;;
59504;SDS011;45321;53.200;5.814;2023-03-23T10:06:58;31.42;;;7.78;;
59504;SDS011;45321;53.200;5.814;2023-03-23T10:09:31;29.77;;;6.80;;
59504;SDS011;45321;53.200;5.814;2023-03-23T10:15:04;27.98;;;5.60;;
59504;SDS011;45321;53.200;5.814;2023-03-23T10:17:45;28.45;;;5.80;;
59504;SDS011;45321;53.200;5.814;2023-03-23T10:20:26;21.98;;;5.10;;
59504;SDS011;45321;53.200;5.814;2023-03-23T10:23:34;31.15;;;5.45;;
59504;SDS011;45321;53.200;5.814;2023-03-23T10:26:07;29.98;;;4.60;;
59504;SDS011;45321;53.200;5.814;2023-03-23T10:28:44;33.65;;;5.75;;
59504;SDS011;45321;53.200;5.814;2023-03-23T10:31:38;29.35;;;5.38;;
59504;SDS011;45321;53.200;5.814;2023-03-23T10:34:20;32.20;;;5.05;;
59504;SDS011;45321;53.200;5.814;2023-03-23T10:37:16;30.15;;;4.60;;
59504;SDS011;45321;53.200;5.814;2023-03-23T10:39:52;29.05;;;5.07;;
59504;SDS011;45321;53.200;5.814;2023-03-23T10:44:51;27.63;;;5.30;;
59504;SDS011;45321;53.200;5.814;2023-03-23T10:47:18;37.67;;;7.07;;
59504;SDS011;45321;53.200;5.814;2023-03-23T10:49:54;30.73;;;6.88;;
59504;SDS011;45321;53.200;5.814;2023-03-23T10:52:30;35.25;;;7.93;;
59504;SDS011;45321;53.200;5.814;2023-03-23T10:57:30;30.83;;;8.30;;
59504;SDS011;45321;53.200;5.814;2023-03-23T11:00:04;27.83;;;6.78;;
59504;SDS011;45321;53.200;5.814;2023-03-23T11:02:56;21.40;;;5.18;;
59504;SDS011;45321;53.200;5.814;2023-03-23T11:05:25;22.77;;;3.92;;
59504;SDS011;45321;53.200;5.814;2023-03-23T11:07:57;19.77;;;3.67;;
59504;SDS011;45321;53.200;5.814;2023-03-23T11:10:26;21.40;;;3.92;;
59504;SDS011;45321;53.200;5.814;2023-03-23T11:12:59;24.25;;;4.93;;
59504;SDS011;45321;53.200;5.814;2023-03-23T11:15:32;21.23;;;4.25;;
59504;SDS011;45321;53.200;5.814;2023-03-23T11:18:18;32.63;;;5.15;;
59504;SDS011;45321;53.200;5.814;2023-03-23T11:20:46;23.30;;;4.13;;
59504;SDS011;45321;53.200;5.814;2023-03-23T11:29:27;19.20;;;4.15;;
59504;SDS011;45321;53.200;5.814;2023-03-23T11:31:32;25.73;;;4.80;;
59504;SDS011;45321;53.200;5.814;2023-03-23T11:34:04;19.25;;;4.03;;
59504;SDS011;45321;53.200;5.814;2023-03-23T11:36:36;18.80;;;4.35;;
59504;SDS011;45321;53.200;5.814;2023-03-23T11:39:26;17.73;;;3.92;;
59504;SDS011;45321;53.200;5.814;2023-03-23T11:42:00;24.05;;;4.32;;
59504;SDS011;45321;53.200;5.814;2023-03-23T11:44:40;20.05;;;3.65;;
59504;SDS011;45321;53.200;5.814;2023-03-23T11:47:27;20.63;;;4.70;;
59504;SDS011;45321;53.200;5.814;2023-03-23T11:50:04;22.65;;;4.10;;
59504;SDS011;45321;53.200;5.814;2023-03-23T11:55:27;21.13;;;4.35;;
59504;SDS011;45321;53.200;5.814;2023-03-23T11:58:00;16.23;;;3.75;;
59504;SDS011;45321;53.200;5.814;2023-03-23T12:00:30;24.58;;;4.95;;
59504;SDS011;45321;53.200;5.814;2023-03-23T12:06:15;20.35;;;4.32;;
59504;SDS011;45321;53.200;5.814;2023-03-23T12:08:57;17.67;;;4.70;;
59504;SDS011;45321;53.200;5.814;2023-03-23T12:33:54;21.67;;;4.22;;
59504;SDS011;45321;53.200;5.814;2023-03-23T12:36:41;22.30;;;4.13;;
59504;SDS011;45321;53.200;5.814;2023-03-23T12:44:46;22.60;;;4.20;;
59504;SDS011;45321;53.200;5.814;2023-03-23T12:52:55;19.98;;;3.95;;
59504;SDS011;45321;53.200;5.814;2023-03-23T12:56:02;20.27;;;4.22;;
59504;SDS011;45321;53.200;5.814;2023-03-23T12:58:31;16.88;;;3.90;;
59504;SDS011;45321;53.200;5.814;2023-03-23T13:01:12;12.70;;;3.58;;
59504;SDS011;45321;53.200;5.814;2023-03-23T13:03:59;19.05;;;4.38;;
59504;SDS011;45321;53.200;5.814;2023-03-23T13:06:34;22.08;;;4.65;;
59504;SDS011;45321;53.200;5.814;2023-03-23T13:11:40;19.45;;;4.18;;
59504;SDS011;45321;53.200;5.814;2023-03-23T13:14:15;16.75;;;3.58;;
59504;SDS011;45321;53.200;5.814;2023-03-23T13:20:08;19.88;;;4.00;;
59504;SDS011;45321;53.200;5.814;2023-03-23T13:28:18;24.63;;;5.93;;
59504;SDS011;45321;53.200;5.814;2023-03-23T13:30:57;17.95;;;3.97;;
59504;SDS011;45321;53.200;5.814;2023-03-23T13:33:24;25.95;;;4.38;;
59504;SDS011;45321;53.200;5.814;2023-03-23T13:35:50;20.02;;;3.83;;
59504;SDS011;45321;53.200;5.814;2023-03-23T13:38:34;20.38;;;4.47;;
59504;SDS011;45321;53.200;5.814;2023-03-23T13:41:08;19.13;;;4.47;;
59504;SDS011;45321;53.200;5.814;2023-03-23T13:43:37;21.42;;;5.53;;
59504;SDS011;45321;53.200;5.814;2023-03-23T13:56:55;18.05;;;3.60;;
59504;SDS011;45321;53.200;5.814;2023-03-23T14:01:52;16.60;;;3.58;;
59504;SDS011;45321;53.200;5.814;2023-03-23T14:04:20;17.40;;;3.08;;
59504;SDS011;45321;53.200;5.814;2023-03-23T14:06:48;18.33;;;3.67;;
59504;SDS011;45321;53.200;5.814;2023-03-23T14:09:16;18.27;;;4.50;;
59504;SDS011;45321;53.200;5.814;2023-03-23T14:11:57;13.15;;;2.92;;
59504;SDS011;45321;53.200;5.814;2023-03-23T14:14:40;17.55;;;3.90;;
59504;SDS011;45321;53.200;5.814;2023-03-23T14:17:28;16.70;;;3.13;;
59504;SDS011;45321;53.200;5.814;2023-03-23T14:19:55;12.23;;;3.17;;
59504;SDS011;45321;53.200;5.814;2023-03-23T14:22:27;14.48;;;3.25;;
59504;SDS011;45321;53.200;5.814;2023-03-23T14:25:02;17.13;;;4.20;;
59504;SDS011;45321;53.200;5.814;2023-03-23T14:27:42;11.95;;;3.03;;
59504;SDS011;45321;53.200;5.814;2023-03-23T14:30:18;13.65;;;3.10;;
59504;SDS011;45321;53.200;5.814;2023-03-23T14:32:52;16.88;;;3.53;;
59504;SDS011;45321;53.200;5.814;2023-03-23T14:37:55;12.77;;;3.45;;
59504;SDS011;45321;53.200;5.814;2023-03-23T14:40:22;13.25;;;2.72;;
59504;SDS011;45321;53.200;5.814;2023-03-23T14:42:50;15.88;;;3.60;;
59504;SDS011;45321;53.200;5.814;2023-03-23T14:45:19;13.30;;;3.15;;
59504;SDS011;45321;53.200;5.814;2023-03-23T14:47:47;13.13;;;2.85;;
59504;SDS011;45321;53.200;5.814;2023-03-23T14:50:23;11.95;;;3.45;;
59504;SDS011;45321;53.200;5.814;2023-03-23T14:52:53;15.05;;;3.00;;
59504;SDS011;45321;53.200;5.814;2023-03-23T14:55:23;12.90;;;3.00;;
59504;SDS011;45321;53.200;5.814;2023-03-23T14:57:52;12.10;;;3.28;;
59504;SDS011;45321;53.200;5.814;2023-03-23T15:00:23;9.50;;;2.92;;
59504;SDS011;45321;53.200;5.814;2023-03-23T15:02:54;15.45;;;3.17;;
59504;SDS011;45321;53.200;5.814;2023-03-23T15:05:22;10.35;;;2.67;;
59504;SDS011;45321;53.200;5.814;2023-03-23T15:07:58;9.15;;;2.47;;
59504;SDS011;45321;53.200;5.814;2023-03-23T15:10:28;11.65;;;2.80;;
59504;SDS011;45321;53.200;5.814;2023-03-23T15:12:54;11.70;;;3.67;;
59504;SDS011;45321;53.200;5.814;2023-03-23T15:17:51;12.35;;;2.90;;
59504;SDS011;45321;53.200;5.814;2023-03-23T15:22:51;9.57;;;2.50;;
59504;SDS011;45321;53.200;5.814;2023-03-23T15:25:36;13.15;;;2.97;;
59504;SDS011;45321;53.200;5.814;2023-03-23T15:28:19;13.43;;;3.00;;
59504;SDS011;45321;53.200;5.814;2023-03-23T15:30:50;15.63;;;4.13;;
59504;SDS011;45321;53.200;5.814;2023-03-23T15:33:19;14.02;;;3.50;;
59504;SDS011;45321;53.200;5.814;2023-03-23T15:35:52;13.48;;;3.25;;
59504;SDS011;45321;53.200;5.814;2023-03-23T15:38:26;14.63;;;3.47;;
59504;SDS011;45321;53.200;5.814;2023-03-23T15:41:00;14.60;;;3.70;;
59504;SDS011;45321;53.200;5.814;2023-03-23T15:43:32;14.88;;;3.55;;
59504;SDS011;45321;53.200;5.814;2023-03-23T15:46:01;16.83;;;3.80;;
59504;SDS011;45321;53.200;5.814;2023-03-23T15:48:46;15.40;;;3.58;;
59504;SDS011;45321;53.200;5.814;2023-03-23T15:51:14;17.98;;;4.05;;
59504;SDS011;45321;53.200;5.814;2023-03-23T15:53:41;19.25;;;6.15;;
59504;SDS011;45321;53.200;5.814;2023-03-23T15:56:08;18.15;;;4.90;;
59504;SDS011;45321;53.200;5.814;2023-03-23T15:58:36;21.38;;;4.60;;
59504;SDS011;45321;53.200;5.814;2023-03-23T16:01:12;22.48;;;5.72;;
59504;SDS011;45321;53.200;5.814;2023-03-23T16:03:40;22.00;;;4.60;;
59504;SDS011;45321;53.200;5.814;2023-03-23T16:06:33;20.20;;;4.43;;
59504;SDS011;45321;53.200;5.814;2023-03-23T16:09:00;21.92;;;4.40;;
59504;SDS011;45321;53.200;5.814;2023-03-23T16:11:27;17.67;;;4.47;;
59504;SDS011;45321;53.200;5.814;2023-03-23T16:13:55;23.52;;;5.53;;
59504;SDS011;45321;53.200;5.814;2023-03-23T16:16:26;20.77;;;4.72;;
59504;SDS011;45321;53.200;5.814;2023-03-23T16:19:00;24.02;;;5.70;;
59504;SDS011;45321;53.200;5.814;2023-03-23T16:21:25;24.50;;;5.28;;
59504;SDS011;45321;53.200;5.814;2023-03-23T16:23:51;22.50;;;5.18;;
59504;SDS011;45321;53.200;5.814;2023-03-23T16:26:17;22.95;;;5.43;;
59504;SDS011;45321;53.200;5.814;2023-03-23T16:28:43;21.00;;;4.20;;
59504;SDS011;45321;53.200;5.814;2023-03-23T16:31:10;23.42;;;5.43;;
59504;SDS011;45321;53.200;5.814;2023-03-23T16:33:36;28.25;;;5.80;;
59504;SDS011;45321;53.200;5.814;2023-03-23T16:36:02;21.20;;;5.00;;
59504;SDS011;45321;53.200;5.814;2023-03-23T16:38:28;28.90;;;5.72;;
59504;SDS011;45321;53.200;5.814;2023-03-23T16:40:54;21.80;;;4.35;;
59504;SDS011;45321;53.200;5.814;2023-03-23T16:43:20;28.52;;;5.60;;
59504;SDS011;45321;53.200;5.814;2023-03-23T16:45:46;27.73;;;5.18;;